Time;durP1;ratioP1;P1;durP2;ratioP2;P2;SDS_P1;SDS_P2;PMS_P1;PMS_P2;Temp;Humidity;BMP_temperature;BMP_pressure;BME280_temperature;BME280_humidity;BME280_pressure;Samples;Min_cycle;Max_cycle;Signal;HPM_P1;HPM_P2
2022/12/17 13:08:07;;;;;;;72.35;30.75;;;;;;;;;;4936280;29;20039;-74
2022/12/17 13:10:35;;;;;;;74.95;29.60;;;;;;;;;;4936636;28;20458;-74
2022/12/17 13:13:28;;;;;;;55.75;28.00;;;;;;;;;;4917982;29;20040;-74
2022/12/17 13:16:00;;;;;;;63.15;31.13;;;;;;;;;;4925612;29;20032;-73
2022/12/17 13:18:35;;;;;;;65.15;29.60;;;;;;;;;;4937238;29;20043;-74
2022/12/17 13:21:05;;;;;;;52.58;27.70;;;;;;;;;;4936409;29;20650;-74
2022/12/17 13:23:36;;;;;;;64.18;29.17;;;;;;;;;;4936153;29;20056;-73
2022/12/17 13:26:21;;;;;;;53.20;30.83;;;;;;;;;;4936626;29;20031;-73
2022/12/17 13:28:58;;;;;;;63.25;30.58;;;;;;;;;;4924866;29;20482;-75
2022/12/17 13:31:28;;;;;;;63.40;34.25;;;;;;;;;;4917661;29;20163;-73
2022/12/17 13:34:10;;;;;;;70.47;36.35;;;;;;;;;;4917079;29;20060;-76
2022/12/17 13:36:55;;;;;;;65.57;36.67;;;;;;;;;;4916451;29;20032;-74
2022/12/17 13:39:59;;;;;;;74.70;37.38;;;;;;;;;;4915295;29;20039;-74
2022/12/17 13:42:29;;;;;;;60.97;35.00;;;;;;;;;;4917067;29;20127;-77
2022/12/17 13:44:56;;;;;;;68.05;34.83;;;;;;;;;;4917363;29;20040;-76
2022/12/17 13:47:26;;;;;;;79.28;37.20;;;;;;;;;;4917462;29;20620;-75
2022/12/17 13:49:55;;;;;;;67.95;35.63;;;;;;;;;;4915923;29;20491;-76
2022/12/17 13:52:25;;;;;;;58.08;35.00;;;;;;;;;;4917715;29;20028;-74
2022/12/17 13:54:51;;;;;;;61.20;33.25;;;;;;;;;;4917150;29;20150;-75
2022/12/17 13:57:19;;;;;;;60.35;32.65;;;;;;;;;;4917131;29;20031;-75
2022/12/17 14:00:04;;;;;;;60.20;31.63;;;;;;;;;;4930105;29;20047;-76
2022/12/17 14:02:40;;;;;;;54.83;30.13;;;;;;;;;;4935025;29;20102;-75
2022/12/17 14:05:19;;;;;;;48.83;29.27;;;;;;;;;;4935986;28;20504;-74
2022/12/17 14:07:45;;;;;;;49.55;28.88;;;;;;;;;;4935763;29;20044;-74
2022/12/17 14:10:16;;;;;;;47.92;28.00;;;;;;;;;;4935877;28;20031;-74
2022/12/17 14:12:44;;;;;;;45.75;26.88;;;;;;;;;;4950106;29;20180;-74
2022/12/17 14:15:24;;;;;;;48.08;27.70;;;;;;;;;;4935780;29;20024;-73
2022/12/17 14:17:52;;;;;;;50.92;28.00;;;;;;;;;;4935879;29;20378;-74
2022/12/17 14:20:21;;;;;;;55.50;29.92;;;;;;;;;;4935912;29;20062;-73
2022/12/17 14:22:51;;;;;;;51.72;29.55;;;;;;;;;;4935675;29;20043;-74
2022/12/17 14:25:21;;;;;;;69.20;44.72;;;;;;;;;;4933928;29;20110;-75
2022/12/17 14:27:55;;;;;;;79.03;46.95;;;;;;;;;;4949834;28;20383;-74
2022/12/17 14:30:34;;;;;;;93.03;55.20;;;;;;;;;;4935301;28;20043;-72
2022/12/17 14:33:00;;;;;;;64.13;39.90;;;;;;;;;;4934962;29;20102;-73
2022/12/17 14:35:32;;;;;;;68.80;40.30;;;;;;;;;;4934485;29;20035;-74
2022/12/17 14:37:59;;;;;;;59.33;34.80;;;;;;;;;;4933356;29;20043;-75
2022/12/17 14:40:25;;;;;;;52.70;32.70;;;;;;;;;;4935174;29;20038;-75
2022/12/17 14:42:56;;;;;;;52.13;30.35;;;;;;;;;;4935208;29;20211;-74
2022/12/17 14:45:24;;;;;;;51.97;30.33;;;;;;;;;;4932728;29;20564;-74
2022/12/17 14:47:54;;;;;;;53.90;30.73;;;;;;;;;;4934744;29;20070;-75
2022/12/17 14:50:20;;;;;;;49.58;30.45;;;;;;;;;;4926693;29;20122;-74
2022/12/17 14:52:48;;;;;;;55.15;30.30;;;;;;;;;;4934532;29;20047;-74
2022/12/17 14:55:22;;;;;;;49.40;29.13;;;;;;;;;;4933385;29;20036;-74
2022/12/17 14:57:49;;;;;;;48.80;26.15;;;;;;;;;;4933177;29;20079;-75
2022/12/17 15:00:15;;;;;;;56.17;30.88;;;;;;;;;;4934485;29;20023;-74
2022/12/17 15:02:42;;;;;;;53.85;30.27;;;;;;;;;;4933536;29;20096;-76
2022/12/17 15:05:14;;;;;;;53.30;28.75;;;;;;;;;;4935619;29;20023;-76
2022/12/17 15:07:40;;;;;;;51.70;28.70;;;;;;;;;;4931709;29;20115;-75
2022/12/17 15:10:15;;;;;;;51.78;28.90;;;;;;;;;;4933087;29;20039;-73
2022/12/17 15:12:42;;;;;;;50.58;29.80;;;;;;;;;;4929991;29;20035;-74
2022/12/17 15:15:12;;;;;;;61.10;33.38;;;;;;;;;;4934250;28;20058;-77
2022/12/17 15:17:38;;;;;;;53.30;30.52;;;;;;;;;;4929363;29;20090;-76
2022/12/17 15:20:04;;;;;;;64.47;29.92;;;;;;;;;;4934469;29;20413;-74
2022/12/17 15:22:30;;;;;;;48.70;30.77;;;;;;;;;;4934128;29;20024;-78
2022/12/17 15:24:56;;;;;;;57.65;32.70;;;;;;;;;;4933707;29;20410;-76
2022/12/17 15:27:21;;;;;;;71.28;31.75;;;;;;;;;;4935037;29;20024;-77
2022/12/17 15:29:47;;;;;;;61.55;33.10;;;;;;;;;;4937020;29;20114;-75
2022/12/17 15:32:19;;;;;;;52.97;32.60;;;;;;;;;;4933727;28;20634;-76
2022/12/17 15:34:45;;;;;;;75.30;34.33;;;;;;;;;;4942716;28;20478;-74
2022/12/17 15:37:11;;;;;;;76.25;35.08;;;;;;;;;;4938775;29;20071;-75
2022/12/17 15:39:38;;;;;;;82.85;35.20;;;;;;;;;;4937882;29;20107;-77
2022/12/17 15:44:48;;;;;;;82.47;35.05;;;;;;;;;;4937435;29;20061;-74
2022/12/17 15:47:14;;;;;;;71.13;34.42;;;;;;;;;;4936975;29;20462;-73
2022/12/17 15:49:40;;;;;;;78.22;33.75;;;;;;;;;;4937100;29;20081;-73
2022/12/17 15:52:06;;;;;;;80.70;35.13;;;;;;;;;;4935789;29;20063;-76
2022/12/17 15:54:32;;;;;;;70.03;34.83;;;;;;;;;;4936313;29;20047;-76
2022/12/17 15:56:57;;;;;;;73.30;33.65;;;;;;;;;;4931567;29;20024;-75
2022/12/17 15:59:23;;;;;;;91.05;39.20;;;;;;;;;;4918238;29;20048;-75
2022/12/17 16:01:49;;;;;;;80.80;37.55;;;;;;;;;;4917785;29;20084;-75
2022/12/17 16:04:15;;;;;;;76.68;37.95;;;;;;;;;;4918247;29;20105;-74
2022/12/17 16:06:41;;;;;;;115.75;45.55;;;;;;;;;;4918114;29;20032;-75
2022/12/17 16:09:07;;;;;;;120.65;43.72;;;;;;;;;;4921097;29;20039;-74
2022/12/17 16:11:33;;;;;;;108.82;44.30;;;;;;;;;;4933679;29;20481;-75
2022/12/17 16:13:59;;;;;;;108.60;44.08;;;;;;;;;;4918036;29;20407;-76
2022/12/17 16:16:25;;;;;;;85.00;38.28;;;;;;;;;;4917638;29;20487;-75
2022/12/17 16:18:51;;;;;;;78.05;35.78;;;;;;;;;;4918215;29;20082;-76
2022/12/17 16:21:17;;;;;;;81.30;37.00;;;;;;;;;;4920497;29;20107;-75
2022/12/17 16:23:43;;;;;;;65.47;33.35;;;;;;;;;;4935633;29;20067;-75
2022/12/17 16:26:10;;;;;;;84.32;37.55;;;;;;;;;;4935479;29;20524;-75
2022/12/17 16:28:36;;;;;;;88.10;41.75;;;;;;;;;;4936801;29;20039;-75
2022/12/17 16:31:12;;;;;;;73.22;34.47;;;;;;;;;;4933131;29;20562;-77
2022/12/17 16:33:41;;;;;;;77.10;36.90;;;;;;;;;;4918275;29;20051;-76
2022/12/17 16:36:09;;;;;;;73.40;38.70;;;;;;;;;;4916356;29;20058;-76
2022/12/17 16:38:48;;;;;;;92.32;35.63;;;;;;;;;;4931574;29;20090;-76
2022/12/17 16:41:15;;;;;;;86.50;37.03;;;;;;;;;;4933424;29;20032;-77
2022/12/17 16:43:41;;;;;;;85.32;37.47;;;;;;;;;;4950255;29;20024;-76
2022/12/17 16:46:33;;;;;;;83.18;38.03;;;;;;;;;;4936700;29;20043;-76
2022/12/17 16:49:21;;;;;;;79.72;35.08;;;;;;;;;;4932040;29;20059;-76
2022/12/17 16:51:50;;;;;;;88.82;35.80;;;;;;;;;;4936478;29;20046;-76
2022/12/17 16:54:21;;;;;;;82.50;38.00;;;;;;;;;;4937276;29;20078;-78
2022/12/17 16:56:48;;;;;;;93.45;41.25;;;;;;;;;;4920287;29;20040;-79
2022/12/17 16:59:15;;;;;;;101.60;43.53;;;;;;;;;;4956059;28;20496;-79
2022/12/17 17:01:43;;;;;;;76.38;39.17;;;;;;;;;;4967076;28;20120;-77
2022/12/17 17:04:10;;;;;;;84.25;39.00;;;;;;;;;;4937357;29;20026;-78
2022/12/17 17:06:43;;;;;;;78.20;39.13;;;;;;;;;;4936143;29;20043;-78
2022/12/17 17:09:10;;;;;;;75.93;40.08;;;;;;;;;;4921657;29;20123;-79
2022/12/17 17:11:36;;;;;;;70.82;36.10;;;;;;;;;;4938592;29;20028;-78
2022/12/17 17:14:05;;;;;;;69.00;34.22;;;;;;;;;;4935497;29;20054;-77
2022/12/17 17:16:33;;;;;;;80.63;37.25;;;;;;;;;;4934998;28;20040;-77
2022/12/17 17:18:59;;;;;;;82.68;38.22;;;;;;;;;;4937440;29;20031;-77
2022/12/17 17:21:28;;;;;;;74.15;40.75;;;;;;;;;;4940133;29;20370;-78
2022/12/17 17:23:58;;;;;;;94.50;41.42;;;;;;;;;;4941593;29;20086;-80
2022/12/17 17:26:26;;;;;;;89.22;40.30;;;;;;;;;;4938438;29;20118;-78
2022/12/17 17:28:53;;;;;;;94.30;39.08;;;;;;;;;;4939917;29;20169;-80
2022/12/17 17:31:20;;;;;;;74.10;39.33;;;;;;;;;;4941337;29;20047;-78
2022/12/17 17:33:48;;;;;;;82.18;38.40;;;;;;;;;;4949663;29;20047;-79
2022/12/17 17:36:16;;;;;;;91.65;40.15;;;;;;;;;;4936146;29;20031;-79
2022/12/17 17:38:42;;;;;;;90.72;38.65;;;;;;;;;;4937712;29;20035;-75
2022/12/17 17:41:15;;;;;;;92.22;42.70;;;;;;;;;;4935534;29;20082;-77
2022/12/17 17:43:42;;;;;;;98.38;41.63;;;;;;;;;;4929854;29;20115;-78
2022/12/17 17:46:16;;;;;;;86.95;41.50;;;;;;;;;;4933851;29;20031;-76
2022/12/17 17:48:44;;;;;;;100.13;48.10;;;;;;;;;;4950655;29;20071;-77
2022/12/17 17:51:15;;;;;;;103.80;48.88;;;;;;;;;;4936373;29;20024;-77
2022/12/17 17:53:41;;;;;;;110.32;50.58;;;;;;;;;;4924598;29;20037;-78
2022/12/17 17:56:16;;;;;;;125.78;52.10;;;;;;;;;;4931429;29;20086;-78
2022/12/17 17:58:45;;;;;;;114.00;49.30;;;;;;;;;;4935426;29;20091;-79
2022/12/17 18:01:13;;;;;;;101.28;47.88;;;;;;;;;;4935151;29;20167;-78
2022/12/17 18:03:39;;;;;;;118.85;48.33;;;;;;;;;;4935968;29;20035;-77
2022/12/17 18:06:09;;;;;;;151.23;52.63;;;;;;;;;;4935144;29;20051;-77
2022/12/17 18:08:36;;;;;;;166.68;59.42;;;;;;;;;;4931576;29;20043;-77
2022/12/17 18:11:04;;;;;;;168.93;59.33;;;;;;;;;;4914302;29;20064;-77
2022/12/17 18:16:16;;;;;;;147.98;38.50;;;;;;;;;;4934571;29;20032;-77
2022/12/17 18:18:42;;;;;;;128.82;43.20;;;;;;;;;;4934743;29;20034;-76
2022/12/17 18:21:14;;;;;;;153.75;46.22;;;;;;;;;;4931460;29;20130;-76
2022/12/17 18:23:40;;;;;;;202.70;42.60;;;;;;;;;;4915219;29;20052;-79
2022/12/17 18:26:16;;;;;;;106.97;31.02;;;;;;;;;;4931416;29;20060;-78
2022/12/17 18:28:43;;;;;;;106.10;27.98;;;;;;;;;;4934085;29;20035;-76
2022/12/17 18:31:15;;;;;;;58.85;26.23;;;;;;;;;;4932758;29;20027;-77
2022/12/17 18:33:43;;;;;;;55.40;24.42;;;;;;;;;;4923818;29;20040;-78
2022/12/17 18:36:18;;;;;;;155.52;26.48;;;;;;;;;;4934206;29;20023;-77
2022/12/17 18:38:45;;;;;;;189.20;26.70;;;;;;;;;;4934230;29;20032;-78
2022/12/17 18:44:04;;;;;;;50.33;22.88;;;;;;;;;;4915296;29;20401;-77
2022/12/17 18:46:31;;;;;;;130.77;30.20;;;;;;;;;;4932475;29;20031;-77
2022/12/17 18:48:58;;;;;;;118.22;34.70;;;;;;;;;;4933397;29;20498;-76
2022/12/17 18:51:25;;;;;;;139.05;35.40;;;;;;;;;;4933423;29;20020;-79
2022/12/17 18:53:54;;;;;;;142.45;37.80;;;;;;;;;;4934759;29;20054;-76
2022/12/17 18:56:20;;;;;;;106.22;40.60;;;;;;;;;;4934571;29;20086;-76
2022/12/17 18:58:46;;;;;;;118.20;42.42;;;;;;;;;;4949289;28;20039;-76
2022/12/17 19:01:23;;;;;;;104.72;40.78;;;;;;;;;;4933551;29;20044;-76
2022/12/17 19:03:50;;;;;;;103.10;42.22;;;;;;;;;;4933507;29;20099;-77
2022/12/17 19:06:17;;;;;;;93.03;40.15;;;;;;;;;;4916162;28;20062;-77
2022/12/17 19:08:43;;;;;;;110.35;45.97;;;;;;;;;;4934826;29;20043;-77
2022/12/17 19:11:16;;;;;;;101.47;40.15;;;;;;;;;;4928339;29;20430;-77
2022/12/17 19:13:44;;;;;;;108.13;45.67;;;;;;;;;;4929200;29;20035;-77
2022/12/17 19:16:12;;;;;;;106.82;46.67;;;;;;;;;;4933538;29;20038;-75
2022/12/17 19:18:39;;;;;;;118.40;48.97;;;;;;;;;;4930943;29;20074;-75
2022/12/17 19:21:06;;;;;;;123.32;52.38;;;;;;;;;;4948016;28;20038;-78
2022/12/17 19:23:33;;;;;;;106.82;47.53;;;;;;;;;;4929168;29;21202;-77
2022/12/17 19:26:07;;;;;;;107.68;50.90;;;;;;;;;;4930233;29;20042;-76
2022/12/17 19:28:34;;;;;;;102.13;48.08;;;;;;;;;;4931305;29;20135;-78
2022/12/17 19:31:00;;;;;;;92.35;45.83;;;;;;;;;;4931854;29;20497;-78
2022/12/17 19:33:27;;;;;;;97.70;42.28;;;;;;;;;;4932572;29;20344;-76
2022/12/17 19:36:20;;;;;;;95.57;45.38;;;;;;;;;;4932994;29;20034;-76
2022/12/17 19:38:51;;;;;;;86.00;43.08;;;;;;;;;;4930378;29;20028;-78
2022/12/17 19:41:17;;;;;;;83.45;38.70;;;;;;;;;;4933641;29;20157;-78
2022/12/17 19:43:45;;;;;;;86.28;42.35;;;;;;;;;;4934434;29;20032;-76
2022/12/17 19:46:14;;;;;;;89.30;43.38;;;;;;;;;;4934015;29;20027;-76
2022/12/17 19:48:41;;;;;;;93.88;41.53;;;;;;;;;;4930876;29;20115;-76
2022/12/17 19:51:09;;;;;;;97.93;43.78;;;;;;;;;;4929761;29;20047;-75
2022/12/17 19:53:37;;;;;;;85.10;40.88;;;;;;;;;;4933994;29;20039;-77
2022/12/17 19:56:21;;;;;;;83.75;43.13;;;;;;;;;;4929776;29;20047;-77
2022/12/17 19:58:51;;;;;;;87.20;44.50;;;;;;;;;;4947936;29;20036;-77
2022/12/17 20:01:21;;;;;;;97.20;41.67;;;;;;;;;;4932508;29;20031;-78
2022/12/17 20:03:48;;;;;;;95.50;42.83;;;;;;;;;;4927841;29;20047;-77
2022/12/17 20:06:15;;;;;;;100.18;44.67;;;;;;;;;;4949112;29;20039;-78
2022/12/17 20:08:42;;;;;;;82.93;40.65;;;;;;;;;;4936157;29;20032;-79
2022/12/17 20:13:56;;;;;;;86.30;42.40;;;;;;;;;;4916641;29;20043;-78
2022/12/17 20:16:22;;;;;;;77.90;37.22;;;;;;;;;;4934743;29;20066;-78
2022/12/17 20:18:48;;;;;;;87.20;38.30;;;;;;;;;;4940155;29;20039;-78
2022/12/17 20:21:14;;;;;;;77.75;40.50;;;;;;;;;;4938379;28;20031;-77
2022/12/17 20:23:41;;;;;;;72.25;38.67;;;;;;;;;;4938200;29;20059;-78
2022/12/17 20:26:09;;;;;;;74.10;36.85;;;;;;;;;;4937195;29;20371;-77
2022/12/17 20:28:37;;;;;;;86.20;39.90;;;;;;;;;;4936419;29;20051;-78
2022/12/17 20:31:03;;;;;;;81.57;40.50;;;;;;;;;;4936877;29;20030;-77
2022/12/17 20:33:30;;;;;;;70.68;33.78;;;;;;;;;;4933527;29;20095;-77
2022/12/17 20:36:02;;;;;;;68.75;31.90;;;;;;;;;;4936229;29;20016;-78
2022/12/17 20:38:28;;;;;;;68.63;32.38;;;;;;;;;;4942989;29;20043;-75
2022/12/17 20:40:54;;;;;;;63.92;30.15;;;;;;;;;;4934934;29;20036;-78
2022/12/17 20:43:19;;;;;;;67.38;29.10;;;;;;;;;;4936233;29;20107;-77
2022/12/17 20:45:54;;;;;;;63.22;32.22;;;;;;;;;;4935868;29;20031;-79
2022/12/17 20:48:21;;;;;;;65.57;35.47;;;;;;;;;;4930819;29;20031;-75
2022/12/17 20:50:48;;;;;;;77.25;37.22;;;;;;;;;;4931857;29;20114;-74
2022/12/17 20:53:15;;;;;;;75.80;39.55;;;;;;;;;;4932128;29;20036;-76
2022/12/17 20:55:41;;;;;;;81.25;39.65;;;;;;;;;;4936987;29;20060;-78
2022/12/17 20:58:06;;;;;;;99.35;45.83;;;;;;;;;;4934915;29;20486;-76
2022/12/17 21:00:32;;;;;;;92.70;44.97;;;;;;;;;;4935642;29;20027;-78
2022/12/17 21:02:58;;;;;;;99.78;49.03;;;;;;;;;;4936095;29;20039;-79
2022/12/17 21:05:25;;;;;;;101.25;50.53;;;;;;;;;;4935351;29;20118;-77
2022/12/17 21:07:51;;;;;;;81.53;43.22;;;;;;;;;;4923783;29;20035;-77
2022/12/17 21:10:17;;;;;;;86.28;46.90;;;;;;;;;;4936562;29;20463;-77
2022/12/17 21:15:27;;;;;;;96.13;44.13;;;;;;;;;;4935827;29;20042;-77
2022/12/17 21:17:53;;;;;;;88.03;43.05;;;;;;;;;;4939016;29;20019;-74
2022/12/17 21:20:19;;;;;;;84.13;43.33;;;;;;;;;;4937923;29;20114;-76
2022/12/17 21:22:45;;;;;;;88.07;40.17;;;;;;;;;;4929392;29;20043;-75
2022/12/17 21:25:11;;;;;;;92.68;41.78;;;;;;;;;;4916556;29;20072;-77
2022/12/17 21:27:37;;;;;;;87.50;40.17;;;;;;;;;;4923373;29;20036;-76
2022/12/17 21:30:03;;;;;;;87.47;41.67;;;;;;;;;;4934326;29;20038;-78
2022/12/17 21:32:30;;;;;;;83.38;39.60;;;;;;;;;;4935275;29;20023;-74
2022/12/17 21:34:56;;;;;;;96.90;39.67;;;;;;;;;;4934810;29;20507;-74
2022/12/17 21:37:24;;;;;;;90.10;39.28;;;;;;;;;;4950133;28;20059;-76
2022/12/17 21:39:50;;;;;;;101.45;42.03;;;;;;;;;;4950196;28;20043;-76
2022/12/17 21:45:02;;;;;;;95.72;43.25;;;;;;;;;;4918496;29;20063;-79
2022/12/17 21:47:27;;;;;;;84.88;39.22;;;;;;;;;;4928647;28;20413;-79
2022/12/17 21:49:53;;;;;;;73.78;37.88;;;;;;;;;;4925373;29;20031;-77
2022/12/17 21:52:19;;;;;;;101.68;44.78;;;;;;;;;;4931991;29;20024;-79
2022/12/17 21:54:46;;;;;;;93.45;46.80;;;;;;;;;;4931934;29;20044;-78
2022/12/17 21:57:12;;;;;;;83.53;36.83;;;;;;;;;;4935135;29;20011;-77
2022/12/17 21:59:38;;;;;;;83.97;38.28;;;;;;;;;;4949860;29;20094;-78
2022/12/17 22:02:03;;;;;;;67.47;33.55;;;;;;;;;;4934039;29;20020;-76
2022/12/17 22:04:29;;;;;;;68.47;29.73;;;;;;;;;;4935081;29;20095;-76
2022/12/17 22:06:55;;;;;;;67.93;29.10;;;;;;;;;;4953201;28;20028;-77
2022/12/17 22:09:22;;;;;;;67.97;30.20;;;;;;;;;;4917898;29;20079;-77
2022/12/17 22:11:48;;;;;;;66.35;30.40;;;;;;;;;;4931735;29;20023;-78
2022/12/17 22:14:14;;;;;;;76.40;32.75;;;;;;;;;;4934688;28;20051;-78
2022/12/17 22:16:47;;;;;;;72.43;29.13;;;;;;;;;;4934899;29;20083;-74
2022/12/17 22:19:19;;;;;;;62.03;27.60;;;;;;;;;;4933269;29;20042;-75
2022/12/17 22:21:46;;;;;;;70.15;30.30;;;;;;;;;;4932186;29;20043;-77
2022/12/17 22:24:18;;;;;;;65.30;29.83;;;;;;;;;;4922298;29;20470;-77
2022/12/17 22:26:44;;;;;;;82.00;32.45;;;;;;;;;;4933396;29;20123;-77
2022/12/17 22:29:10;;;;;;;61.65;27.67;;;;;;;;;;4928159;29;20035;-77
2022/12/17 22:34:21;;;;;;;74.82;27.42;;;;;;;;;;4934553;29;20047;-78
2022/12/17 22:36:47;;;;;;;58.65;25.30;;;;;;;;;;4917957;29;20024;-76
2022/12/17 22:39:15;;;;;;;53.85;24.60;;;;;;;;;;4914385;29;20040;-75
2022/12/17 22:44:26;;;;;;;57.72;25.73;;;;;;;;;;4930902;29;20095;-79
2022/12/17 22:46:52;;;;;;;63.50;25.52;;;;;;;;;;4930736;29;20074;-77
2022/12/17 22:49:21;;;;;;;67.75;29.48;;;;;;;;;;4933039;29;20067;-77
2022/12/17 22:51:47;;;;;;;71.10;29.23;;;;;;;;;;4931861;29;20040;-76
2022/12/17 22:54:13;;;;;;;70.80;28.52;;;;;;;;;;4928484;29;20071;-77
2022/12/17 22:56:42;;;;;;;64.13;27.15;;;;;;;;;;4931823;29;20023;-77
2022/12/17 22:59:17;;;;;;;72.00;30.45;;;;;;;;;;4928752;29;20059;-76
2022/12/17 23:01:42;;;;;;;84.70;29.92;;;;;;;;;;4922746;29;20035;-78
2022/12/17 23:04:12;;;;;;;76.65;27.92;;;;;;;;;;4929859;29;20430;-77
2022/12/17 23:06:39;;;;;;;71.95;26.60;;;;;;;;;;4928681;29;20036;-77
2022/12/17 23:09:04;;;;;;;71.30;27.02;;;;;;;;;;4932879;29;21028;-76
2022/12/17 23:11:30;;;;;;;66.72;25.98;;;;;;;;;;4925338;29;20035;-78
2022/12/17 23:13:56;;;;;;;71.18;26.25;;;;;;;;;;4926356;29;20099;-78
2022/12/17 23:16:22;;;;;;;64.25;24.63;;;;;;;;;;4928853;29;20055;-78
2022/12/17 23:18:49;;;;;;;58.10;24.02;;;;;;;;;;4932670;29;20027;-78
2022/12/17 23:21:22;;;;;;;61.30;24.75;;;;;;;;;;4928303;29;20070;-78
2022/12/17 23:23:50;;;;;;;57.25;24.35;;;;;;;;;;4927181;29;20059;-78
2022/12/17 23:26:23;;;;;;;58.22;23.30;;;;;;;;;;4933790;29;20036;-77
2022/12/17 23:28:57;;;;;;;54.80;24.70;;;;;;;;;;4932068;29;20036;-77
2022/12/17 23:31:25;;;;;;;53.75;24.85;;;;;;;;;;4931845;29;20039;-79
2022/12/17 23:33:50;;;;;;;53.40;24.08;;;;;;;;;;4933111;28;20111;-78
2022/12/17 23:36:20;;;;;;;55.80;23.83;;;;;;;;;;4928610;29;20111;-77
2022/12/17 23:38:46;;;;;;;53.15;23.45;;;;;;;;;;4932025;29;20035;-78
2022/12/17 23:41:18;;;;;;;49.35;22.85;;;;;;;;;;4931126;29;20028;-77
2022/12/17 23:43:46;;;;;;;53.65;23.88;;;;;;;;;;4929059;29;20524;-76
2022/12/17 23:46:12;;;;;;;46.22;21.02;;;;;;;;;;4931521;29;20058;-76
2022/12/17 23:48:40;;;;;;;46.13;21.40;;;;;;;;;;4928382;29;20112;-77
2022/12/17 23:51:07;;;;;;;47.60;20.50;;;;;;;;;;4931050;29;20555;-77
2022/12/17 23:53:33;;;;;;;47.70;21.55;;;;;;;;;;4933810;29;20040;-76
2022/12/17 23:56:11;;;;;;;49.63;21.23;;;;;;;;;;4935836;29;20039;-76
2022/12/17 23:58:38;;;;;;;51.47;22.23;;;;;;;;;;4933400;29;20040;-75
